sensor_id;sensor_type;location;lat;lon;timestamp;P1;durP1;ratioP1;P2;durP2;ratioP2
6499;SDS011;3283;52.330;9.772;2023-01-13T05:17:32;50.90;;;9.60;;
6499;SDS011;3283;52.330;9.772;2023-01-13T05:19:59;44.50;;;8.47;;
6499;SDS011;3283;52.330;9.772;2023-01-13T05:22:24;30.17;;;5.83;;
6499;SDS011;3283;52.330;9.772;2023-01-13T05:25:08;30.83;;;7.23;;
6499;SDS011;3283;52.330;9.772;2023-01-13T05:27:50;27.90;;;6.10;;
6499;SDS011;3283;52.330;9.772;2023-01-13T05:30:18;29.10;;;8.00;;
6499;SDS011;3283;52.330;9.772;2023-01-13T05:32:45;23.20;;;5.47;;
6499;SDS011;3283;52.330;9.772;2023-01-13T05:35:10;19.03;;;5.83;;
6499;SDS011;3283;52.330;9.772;2023-01-13T05:37:36;28.37;;;5.57;;
6499;SDS011;3283;52.330;9.772;2023-01-13T05:40:01;33.33;;;6.73;;
6499;SDS011;3283;52.330;9.772;2023-01-13T05:42:46;23.13;;;5.47;;
6499;SDS011;3283;52.330;9.772;2023-01-13T05:45:30;27.17;;;5.23;;
6499;SDS011;3283;52.330;9.772;2023-01-13T05:47:56;447.07;;;144.23;;
6499;SDS011;3283;52.330;9.772;2023-01-13T05:50:21;59.57;;;23.20;;
6499;SDS011;3283;52.330;9.772;2023-01-13T05:52:47;86.13;;;54.57;;
6499;SDS011;3283;52.330;9.772;2023-01-13T05:55:13;124.07;;;76.23;;
6499;SDS011;3283;52.330;9.772;2023-01-13T05:57:39;156.73;;;82.73;;
6499;SDS011;3283;52.330;9.772;2023-01-13T06:00:04;86.20;;;56.87;;
6499;SDS011;3283;52.330;9.772;2023-01-13T06:02:30;85.13;;;52.57;;
6499;SDS011;3283;52.330;9.772;2023-01-13T06:04:56;57.67;;;20.30;;
6499;SDS011;3283;52.330;9.772;2023-01-13T06:07:21;106.57;;;56.70;;
6499;SDS011;3283;52.330;9.772;2023-01-13T06:09:46;77.83;;;31.03;;
6499;SDS011;3283;52.330;9.772;2023-01-13T06:12:12;77.27;;;51.97;;
6499;SDS011;3283;52.330;9.772;2023-01-13T06:14:38;73.93;;;48.77;;
6499;SDS011;3283;52.330;9.772;2023-01-13T06:17:13;76.90;;;44.40;;
6499;SDS011;3283;52.330;9.772;2023-01-13T06:19:39;97.20;;;62.70;;
6499;SDS011;3283;52.330;9.772;2023-01-13T06:22:12;116.57;;;72.33;;
6499;SDS011;3283;52.330;9.772;2023-01-13T06:24:40;175.50;;;109.53;;
6499;SDS011;3283;52.330;9.772;2023-01-13T06:27:07;146.77;;;90.77;;
6499;SDS011;3283;52.330;9.772;2023-01-13T06:29:33;176.80;;;99.63;;
6499;SDS011;3283;52.330;9.772;2023-01-13T06:31:59;82.73;;;48.87;;
6499;SDS011;3283;52.330;9.772;2023-01-13T06:34:30;64.73;;;34.60;;
6499;SDS011;3283;52.330;9.772;2023-01-13T06:36:56;73.23;;;37.37;;
6499;SDS011;3283;52.330;9.772;2023-01-13T06:39:23;84.43;;;51.90;;
6499;SDS011;3283;52.330;9.772;2023-01-13T06:41:52;76.83;;;39.10;;
6499;SDS011;3283;52.330;9.772;2023-01-13T06:44:37;62.03;;;36.03;;
6499;SDS011;3283;52.330;9.772;2023-01-13T06:47:02;90.07;;;56.13;;
6499;SDS011;3283;52.330;9.772;2023-01-13T06:49:28;93.20;;;56.60;;
6499;SDS011;3283;52.330;9.772;2023-01-13T06:51:54;136.47;;;91.47;;
6499;SDS011;3283;52.330;9.772;2023-01-13T06:54:19;108.13;;;70.73;;
6499;SDS011;3283;52.330;9.772;2023-01-13T06:56:45;122.37;;;81.27;;
6499;SDS011;3283;52.330;9.772;2023-01-13T06:59:10;60.90;;;33.23;;
6499;SDS011;3283;52.330;9.772;2023-01-13T07:01:35;85.80;;;53.90;;
6499;SDS011;3283;52.330;9.772;2023-01-13T07:04:01;194.57;;;109.63;;
6499;SDS011;3283;52.330;9.772;2023-01-13T07:06:26;157.47;;;100.10;;
6499;SDS011;3283;52.330;9.772;2023-01-13T07:08:52;133.90;;;98.93;;
6499;SDS011;3283;52.330;9.772;2023-01-13T07:11:18;160.77;;;108.13;;
6499;SDS011;3283;52.330;9.772;2023-01-13T07:13:43;165.77;;;110.30;;
6499;SDS011;3283;52.330;9.772;2023-01-13T07:16:27;109.13;;;74.37;;
6499;SDS011;3283;52.330;9.772;2023-01-13T07:18:53;104.87;;;64.33;;
6499;SDS011;3283;52.330;9.772;2023-01-13T07:21:18;131.77;;;95.87;;
6499;SDS011;3283;52.330;9.772;2023-01-13T07:23:44;229.20;;;115.67;;
6499;SDS011;3283;52.330;9.772;2023-01-13T07:26:11;194.43;;;118.73;;
6499;SDS011;3283;52.330;9.772;2023-01-13T07:28:38;155.90;;;105.70;;
6499;SDS011;3283;52.330;9.772;2023-01-13T07:31:04;116.17;;;73.50;;
6499;SDS011;3283;52.330;9.772;2023-01-13T07:33:30;71.07;;;47.97;;
6499;SDS011;3283;52.330;9.772;2023-01-13T07:35:58;170.93;;;105.83;;
6499;SDS011;3283;52.330;9.772;2023-01-13T07:38:25;127.97;;;81.23;;
6499;SDS011;3283;52.330;9.772;2023-01-13T07:40:51;152.17;;;92.47;;
6499;SDS011;3283;52.330;9.772;2023-01-13T07:43:17;168.90;;;103.07;;
6499;SDS011;3283;52.330;9.772;2023-01-13T07:45:58;173.20;;;107.10;;
6499;SDS011;3283;52.330;9.772;2023-01-13T07:48:28;148.63;;;98.07;;
6499;SDS011;3283;52.330;9.772;2023-01-13T07:50:54;182.43;;;111.70;;
6499;SDS011;3283;52.330;9.772;2023-01-13T07:53:20;108.20;;;75.00;;
6499;SDS011;3283;52.330;9.772;2023-01-13T07:55:46;93.13;;;71.57;;
6499;SDS011;3283;52.330;9.772;2023-01-13T07:58:11;149.73;;;87.97;;
6499;SDS011;3283;52.330;9.772;2023-01-13T08:00:37;139.37;;;84.97;;
6499;SDS011;3283;52.330;9.772;2023-01-13T08:03:03;126.57;;;82.30;;
6499;SDS011;3283;52.330;9.772;2023-01-13T08:05:29;114.70;;;76.20;;
6499;SDS011;3283;52.330;9.772;2023-01-13T08:07:54;116.93;;;73.17;;
6499;SDS011;3283;52.330;9.772;2023-01-13T08:10:22;53.47;;;36.07;;
6499;SDS011;3283;52.330;9.772;2023-01-13T08:12:47;83.47;;;54.07;;
6499;SDS011;3283;52.330;9.772;2023-01-13T08:15:31;106.17;;;70.40;;
6499;SDS011;3283;52.330;9.772;2023-01-13T08:17:58;111.33;;;75.87;;
6499;SDS011;3283;52.330;9.772;2023-01-13T08:20:24;74.10;;;38.73;;
6499;SDS011;3283;52.330;9.772;2023-01-13T08:22:49;42.23;;;23.87;;
6499;SDS011;3283;52.330;9.772;2023-01-13T08:25:19;67.40;;;37.73;;
6499;SDS011;3283;52.330;9.772;2023-01-13T08:27:44;95.87;;;58.90;;
6499;SDS011;3283;52.330;9.772;2023-01-13T08:30:13;112.53;;;73.83;;
6499;SDS011;3283;52.330;9.772;2023-01-13T08:32:39;113.30;;;70.23;;
6499;SDS011;3283;52.330;9.772;2023-01-13T08:35:04;98.57;;;73.70;;
6499;SDS011;3283;52.330;9.772;2023-01-13T08:37:30;121.73;;;77.97;;
6499;SDS011;3283;52.330;9.772;2023-01-13T08:39:55;128.47;;;81.23;;
6499;SDS011;3283;52.330;9.772;2023-01-13T08:42:20;136.50;;;88.43;;
6499;SDS011;3283;52.330;9.772;2023-01-13T08:44:45;99.23;;;60.97;;
6499;SDS011;3283;52.330;9.772;2023-01-13T08:47:11;121.87;;;76.57;;
6499;SDS011;3283;52.330;9.772;2023-01-13T08:49:36;169.00;;;98.30;;
6499;SDS011;3283;52.330;9.772;2023-01-13T08:52:01;162.13;;;95.33;;
6499;SDS011;3283;52.330;9.772;2023-01-13T08:54:27;169.37;;;101.67;;
6499;SDS011;3283;52.330;9.772;2023-01-13T08:56:52;178.17;;;100.07;;
6499;SDS011;3283;52.330;9.772;2023-01-13T08:59:18;166.90;;;99.17;;
6499;SDS011;3283;52.330;9.772;2023-01-13T09:01:43;189.57;;;107.83;;
6499;SDS011;3283;52.330;9.772;2023-01-13T09:04:12;178.93;;;102.20;;
6499;SDS011;3283;52.330;9.772;2023-01-13T09:06:40;87.17;;;51.53;;
6499;SDS011;3283;52.330;9.772;2023-01-13T09:09:05;64.83;;;39.40;;
6499;SDS011;3283;52.330;9.772;2023-01-13T09:11:32;50.73;;;35.10;;
6499;SDS011;3283;52.330;9.772;2023-01-13T09:14:19;45.40;;;26.00;;
6499;SDS011;3283;52.330;9.772;2023-01-13T09:16:45;48.20;;;23.80;;
6499;SDS011;3283;52.330;9.772;2023-01-13T09:19:11;52.73;;;25.50;;
6499;SDS011;3283;52.330;9.772;2023-01-13T09:21:36;44.50;;;23.03;;
6499;SDS011;3283;52.330;9.772;2023-01-13T09:24:01;57.73;;;21.17;;
6499;SDS011;3283;52.330;9.772;2023-01-13T09:26:27;59.83;;;20.33;;
6499;SDS011;3283;52.330;9.772;2023-01-13T09:28:52;87.27;;;24.23;;
6499;SDS011;3283;52.330;9.772;2023-01-13T09:31:17;34.53;;;18.00;;
6499;SDS011;3283;52.330;9.772;2023-01-13T09:33:43;49.10;;;22.27;;
6499;SDS011;3283;52.330;9.772;2023-01-13T09:36:27;48.40;;;21.40;;
6499;SDS011;3283;52.330;9.772;2023-01-13T09:38:52;63.10;;;28.80;;
6499;SDS011;3283;52.330;9.772;2023-01-13T09:41:18;40.53;;;20.73;;
6499;SDS011;3283;52.330;9.772;2023-01-13T09:44:05;61.93;;;28.00;;
6499;SDS011;3283;52.330;9.772;2023-01-13T09:46:55;47.30;;;27.80;;
6499;SDS011;3283;52.330;9.772;2023-01-13T09:49:36;49.97;;;29.60;;
6499;SDS011;3283;52.330;9.772;2023-01-13T09:54:54;71.03;;;48.50;;
6499;SDS011;3283;52.330;9.772;2023-01-13T09:57:29;57.77;;;43.10;;
6499;SDS011;3283;52.330;9.772;2023-01-13T09:59:58;67.73;;;50.20;;
6499;SDS011;3283;52.330;9.772;2023-01-13T10:02:27;81.40;;;58.87;;
6499;SDS011;3283;52.330;9.772;2023-01-13T10:05:02;111.13;;;74.40;;
6499;SDS011;3283;52.330;9.772;2023-01-13T10:07:28;88.30;;;63.20;;
6499;SDS011;3283;52.330;9.772;2023-01-13T10:09:58;91.37;;;60.70;;
6499;SDS011;3283;52.330;9.772;2023-01-13T10:12:26;86.10;;;61.10;;
6499;SDS011;3283;52.330;9.772;2023-01-13T10:15:13;115.13;;;73.30;;
6499;SDS011;3283;52.330;9.772;2023-01-13T10:17:46;132.27;;;81.93;;
6499;SDS011;3283;52.330;9.772;2023-01-13T10:20:25;117.43;;;82.97;;
6499;SDS011;3283;52.330;9.772;2023-01-13T10:25:31;124.77;;;83.27;;
6499;SDS011;3283;52.330;9.772;2023-01-13T10:28:10;122.83;;;82.50;;
6499;SDS011;3283;52.330;9.772;2023-01-13T10:30:39;98.93;;;64.20;;
6499;SDS011;3283;52.330;9.772;2023-01-13T10:33:10;78.10;;;46.80;;
6499;SDS011;3283;52.330;9.772;2023-01-13T10:40:52;92.57;;;61.00;;
6499;SDS011;3283;52.330;9.772;2023-01-13T10:43:19;115.60;;;70.60;;
6499;SDS011;3283;52.330;9.772;2023-01-13T10:46:04;80.53;;;48.97;;
6499;SDS011;3283;52.330;9.772;2023-01-13T10:48:41;83.33;;;59.60;;
6499;SDS011;3283;52.330;9.772;2023-01-13T10:56:22;97.00;;;67.03;;
6499;SDS011;3283;52.330;9.772;2023-01-13T10:58:50;91.57;;;57.20;;
6499;SDS011;3283;52.330;9.772;2023-01-13T11:01:23;73.77;;;39.40;;
6499;SDS011;3283;52.330;9.772;2023-01-13T11:03:50;118.40;;;57.40;;
6499;SDS011;3283;52.330;9.772;2023-01-13T11:06:22;57.10;;;40.13;;
6499;SDS011;3283;52.330;9.772;2023-01-13T11:08:51;73.80;;;44.87;;
6499;SDS011;3283;52.330;9.772;2023-01-13T11:14:07;88.30;;;57.10;;
6499;SDS011;3283;52.330;9.772;2023-01-13T11:17:28;75.60;;;49.77;;
6499;SDS011;3283;52.330;9.772;2023-01-13T11:20:19;89.87;;;58.40;;
6499;SDS011;3283;52.330;9.772;2023-01-13T11:22:53;84.77;;;57.47;;
6499;SDS011;3283;52.330;9.772;2023-01-13T11:27:59;96.67;;;66.27;;
6499;SDS011;3283;52.330;9.772;2023-01-13T11:30:37;103.50;;;68.00;;
6499;SDS011;3283;52.330;9.772;2023-01-13T11:41:06;97.17;;;63.07;;
6499;SDS011;3283;52.330;9.772;2023-01-13T11:46:06;83.47;;;68.57;;
6499;SDS011;3283;52.330;9.772;2023-01-13T11:48:34;88.07;;;60.03;;
6499;SDS011;3283;52.330;9.772;2023-01-13T11:51:39;79.80;;;50.63;;
6499;SDS011;3283;52.330;9.772;2023-01-13T12:02:52;125.33;;;78.03;;
6499;SDS011;3283;52.330;9.772;2023-01-13T12:07:18;93.17;;;61.73;;
6499;SDS011;3283;52.330;9.772;2023-01-13T12:21:18;121.50;;;74.87;;
6499;SDS011;3283;52.330;9.772;2023-01-13T12:26:21;122.23;;;62.37;;
6499;SDS011;3283;52.330;9.772;2023-01-13T12:28:52;82.17;;;49.97;;
6499;SDS011;3283;52.330;9.772;2023-01-13T12:31:21;49.50;;;33.13;;
6499;SDS011;3283;52.330;9.772;2023-01-13T12:39:56;99.07;;;58.87;;
6499;SDS011;3283;52.330;9.772;2023-01-13T12:42:21;97.80;;;60.00;;
6499;SDS011;3283;52.330;9.772;2023-01-13T12:45:31;101.97;;;57.37;;
6499;SDS011;3283;52.330;9.772;2023-01-13T12:47:57;117.20;;;66.77;;
6499;SDS011;3283;52.330;9.772;2023-01-13T12:52:50;104.37;;;54.87;;
6499;SDS011;3283;52.330;9.772;2023-01-13T12:55:19;109.77;;;59.90;;
6499;SDS011;3283;52.330;9.772;2023-01-13T13:00:51;92.60;;;55.97;;
6499;SDS011;3283;52.330;9.772;2023-01-13T13:03:25;70.40;;;50.97;;
6499;SDS011;3283;52.330;9.772;2023-01-13T13:06:15;92.23;;;65.60;;
6499;SDS011;3283;52.330;9.772;2023-01-13T18:43:35;25.20;;;8.33;;
6499;SDS011;3283;52.330;9.772;2023-01-13T18:46:00;15.87;;;5.00;;
6499;SDS011;3283;52.330;9.772;2023-01-13T18:48:25;13.80;;;4.00;;
6499;SDS011;3283;52.330;9.772;2023-01-13T18:50:51;11.93;;;4.43;;
6499;SDS011;3283;52.330;9.772;2023-01-13T18:53:17;9.80;;;4.07;;
